Time;durP1;ratioP1;P1;durP2;ratioP2;P2;SDS_P1;SDS_P2;PMS_P1;PMS_P2;Temp;Humidity;BMP_temperature;BMP_pressure;BME280_temperature;BME280_humidity;BME280_pressure;Samples;Min_cycle;Max_cycle;Signal;HPM_P1;HPM_P2
2023/09/25 00:02:01;;;;;;;4.00;2.53;;;;;;;;;;4957404;28;20242;-80
2023/09/25 00:04:28;;;;;;;2.40;2.20;;;;;;;;;;4971415;28;20186;-78
2023/09/25 00:06:53;;;;;;;3.43;2.27;;;;;;;;;;4954975;28;20188;-79
2023/09/25 00:09:19;;;;;;;2.23;1.90;;;;;;;;;;4954498;28;20202;-80
2023/09/25 00:11:44;;;;;;;2.93;2.20;;;;;;;;;;4970339;28;20282;-79
2023/09/25 00:14:10;;;;;;;2.30;1.83;;;;;;;;;;4954674;28;20219;-80
2023/09/25 00:16:35;;;;;;;2.30;2.03;;;;;;;;;;4953088;28;20211;-80
2023/09/25 00:19:00;;;;;;;1.97;1.80;;;;;;;;;;4954717;28;20192;-81
2023/09/25 00:21:25;;;;;;;3.20;2.10;;;;;;;;;;4953018;28;20200;-79
2023/09/25 00:23:54;;;;;;;4.10;2.37;;;;;;;;;;4954386;28;20194;-80
2023/09/25 00:26:19;;;;;;;2.73;2.27;;;;;;;;;;4951399;28;20215;-80
2023/09/25 00:28:45;;;;;;;2.30;2.07;;;;;;;;;;4956460;28;20210;-80
2023/09/25 00:31:11;;;;;;;4.03;2.40;;;;;;;;;;4972464;28;20381;-80
2023/09/25 00:33:36;;;;;;;3.30;2.20;;;;;;;;;;4956529;28;20186;-79
2023/09/25 00:36:01;;;;;;;3.70;2.33;;;;;;;;;;4955867;28;20309;-80
2023/09/25 00:38:26;;;;;;;4.30;2.50;;;;;;;;;;4969873;28;20185;-79
2023/09/25 00:40:52;;;;;;;2.40;2.00;;;;;;;;;;4953683;28;20179;-80
2023/09/25 00:43:17;;;;;;;3.30;2.43;;;;;;;;;;4952231;28;20215;-80
2023/09/25 00:45:44;;;;;;;3.10;2.50;;;;;;;;;;4955163;28;20186;-79
2023/09/25 00:48:16;;;;;;;2.83;2.30;;;;;;;;;;4954332;28;20191;-79
2023/09/25 00:50:41;;;;;;;2.17;1.97;;;;;;;;;;4942901;28;20586;-78
2023/09/25 00:53:09;;;;;;;3.87;2.70;;;;;;;;;;4934253;29;20268;-80
2023/09/25 00:55:35;;;;;;;3.50;2.20;;;;;;;;;;4935224;29;20204;-80
2023/09/25 00:58:00;;;;;;;4.30;2.30;;;;;;;;;;4926575;29;20280;-80
2023/09/25 01:00:25;;;;;;;3.23;1.80;;;;;;;;;;4929852;29;20216;-80
2023/09/25 01:02:51;;;;;;;3.10;2.40;;;;;;;;;;4930094;29;20219;-80
2023/09/25 01:05:16;;;;;;;4.93;3.03;;;;;;;;;;4934327;29;20204;-79
2023/09/25 01:07:42;;;;;;;2.50;2.17;;;;;;;;;;4931834;29;20242;-80
2023/09/25 01:10:07;;;;;;;2.37;2.10;;;;;;;;;;4931893;29;20191;-79
2023/09/25 01:12:33;;;;;;;3.07;1.87;;;;;;;;;;4930272;29;20196;-79
2023/09/25 01:15:00;;;;;;;3.33;2.50;;;;;;;;;;4931432;29;20201;-80
2023/09/25 01:17:25;;;;;;;3.53;2.17;;;;;;;;;;4931549;29;20200;-79
2023/09/25 01:19:50;;;;;;;2.53;2.33;;;;;;;;;;4934491;29;20177;-80
2023/09/25 01:22:16;;;;;;;2.63;2.10;;;;;;;;;;4932784;29;20177;-80
2023/09/25 01:24:41;;;;;;;4.67;2.13;;;;;;;;;;4946339;28;20192;-80
2023/09/25 01:27:06;;;;;;;2.77;2.37;;;;;;;;;;4930585;29;20196;-80
2023/09/25 01:29:32;;;;;;;3.63;2.07;;;;;;;;;;4934714;29;20196;-80
2023/09/25 01:31:57;;;;;;;3.73;2.30;;;;;;;;;;4936130;29;20193;-80
2023/09/25 01:34:23;;;;;;;2.23;1.90;;;;;;;;;;4931762;29;20230;-79
2023/09/25 01:36:48;;;;;;;4.87;2.20;;;;;;;;;;4932032;29;20240;-80
2023/09/25 01:39:14;;;;;;;2.40;2.10;;;;;;;;;;4931806;29;20300;-80
2023/09/25 01:41:40;;;;;;;2.17;1.93;;;;;;;;;;4928709;29;20434;-79
2023/09/25 01:44:05;;;;;;;3.00;2.10;;;;;;;;;;4946979;28;20278;-79
2023/09/25 01:46:30;;;;;;;2.30;2.10;;;;;;;;;;4930351;29;20219;-80
2023/09/25 01:48:56;;;;;;;4.40;2.23;;;;;;;;;;4932437;29;20256;-79
2023/09/25 01:51:21;;;;;;;2.77;2.17;;;;;;;;;;4949315;28;20230;-80
2023/09/25 01:53:50;;;;;;;3.80;2.20;;;;;;;;;;4969384;28;20174;-80
2023/09/25 01:56:16;;;;;;;2.53;2.17;;;;;;;;;;4950690;28;20191;-79
2023/09/25 01:58:44;;;;;;;3.20;2.10;;;;;;;;;;4969459;28;20204;-80
2023/09/25 02:01:10;;;;;;;2.77;2.20;;;;;;;;;;4952653;28;20657;-79
2023/09/25 02:03:36;;;;;;;3.27;2.10;;;;;;;;;;4955054;28;20187;-80
2023/09/25 02:06:01;;;;;;;2.30;2.10;;;;;;;;;;4951975;28;20197;-80
2023/09/25 02:08:26;;;;;;;3.40;2.10;;;;;;;;;;4967594;28;20220;-80
2023/09/25 02:10:52;;;;;;;4.53;2.70;;;;;;;;;;4952467;28;20208;-79
2023/09/25 02:13:17;;;;;;;2.40;2.20;;;;;;;;;;4952405;28;20831;-79
2023/09/25 02:15:42;;;;;;;2.27;1.80;;;;;;;;;;4968793;28;20227;-80
2023/09/25 02:18:08;;;;;;;3.83;1.83;;;;;;;;;;4952723;28;20192;-79
2023/09/25 02:20:34;;;;;;;3.07;2.20;;;;;;;;;;4968766;28;20273;-80
2023/09/25 02:22:59;;;;;;;3.53;2.30;;;;;;;;;;4969096;28;20225;-79
2023/09/25 02:25:24;;;;;;;2.97;2.07;;;;;;;;;;4968202;28;20232;-79
2023/09/25 02:30:17;;;;;;;3.47;2.13;;;;;;;;;;4963867;28;20386;-75
2023/09/25 02:32:43;;;;;;;2.63;2.00;;;;;;;;;;4949886;28;20173;-75
2023/09/25 02:35:08;;;;;;;2.67;2.10;;;;;;;;;;4952513;28;20202;-75
2023/09/25 02:37:35;;;;;;;3.50;2.20;;;;;;;;;;4952422;28;20224;-76
2023/09/25 02:40:00;;;;;;;2.23;2.03;;;;;;;;;;4952109;28;20194;-76
2023/09/25 02:42:25;;;;;;;2.87;2.37;;;;;;;;;;4957022;28;20176;-75
2023/09/25 02:44:51;;;;;;;2.40;2.10;;;;;;;;;;4952219;28;20182;-76
2023/09/25 02:47:16;;;;;;;5.17;2.60;;;;;;;;;;4971417;28;20189;-76
2023/09/25 02:49:42;;;;;;;2.57;2.33;;;;;;;;;;4952382;28;20177;-76
2023/09/25 02:52:07;;;;;;;4.03;2.27;;;;;;;;;;4954246;28;20192;-75
2023/09/25 02:54:32;;;;;;;3.70;1.97;;;;;;;;;;4956590;28;20213;-75
2023/09/25 02:56:58;;;;;;;3.33;2.00;;;;;;;;;;4956250;28;20187;-76
2023/09/25 02:59:23;;;;;;;1.90;1.80;;;;;;;;;;4971611;28;20236;-76
2023/09/25 03:01:48;;;;;;;4.00;2.27;;;;;;;;;;4954562;28;20177;-76
2023/09/25 03:04:13;;;;;;;2.77;2.40;;;;;;;;;;4967997;28;20193;-75
2023/09/25 03:06:39;;;;;;;2.73;2.20;;;;;;;;;;4953700;28;20194;-76
2023/09/25 03:09:04;;;;;;;3.77;2.20;;;;;;;;;;4972123;28;20277;-76
2023/09/25 03:11:31;;;;;;;3.50;2.10;;;;;;;;;;4953750;28;20196;-76
2023/09/25 03:13:57;;;;;;;3.33;1.77;;;;;;;;;;4955227;28;20189;-75
2023/09/25 03:16:22;;;;;;;3.10;2.53;;;;;;;;;;4953863;28;20236;-75
2023/09/25 03:18:47;;;;;;;2.33;2.10;;;;;;;;;;4954752;28;20178;-76
2023/09/25 03:21:13;;;;;;;2.20;1.80;;;;;;;;;;4952119;28;20198;-75
2023/09/25 03:23:39;;;;;;;5.83;2.10;;;;;;;;;;4955467;28;20208;-75
2023/09/25 03:26:12;;;;;;;2.63;1.93;;;;;;;;;;4953028;28;20189;-75
2023/09/25 03:28:37;;;;;;;3.67;2.40;;;;;;;;;;4954511;28;20286;-75
2023/09/25 03:31:03;;;;;;;3.03;1.90;;;;;;;;;;4971434;28;20191;-76
2023/09/25 03:33:28;;;;;;;2.20;1.77;;;;;;;;;;4969455;28;20295;-75
2023/09/25 03:35:53;;;;;;;3.13;2.03;;;;;;;;;;4952227;28;20209;-75
2023/09/25 03:38:18;;;;;;;2.10;1.90;;;;;;;;;;4971255;28;20221;-75
2023/09/25 03:40:43;;;;;;;2.43;2.00;;;;;;;;;;4968005;28;20228;-75
2023/09/25 03:43:09;;;;;;;4.07;2.10;;;;;;;;;;4969801;28;20173;-75
2023/09/25 03:45:34;;;;;;;6.87;2.67;;;;;;;;;;4954536;28;20185;-75
2023/09/25 03:47:59;;;;;;;2.17;1.97;;;;;;;;;;4950403;28;20285;-75
2023/09/25 03:50:24;;;;;;;3.30;2.30;;;;;;;;;;4971374;28;20174;-75
2023/09/25 03:52:50;;;;;;;3.40;2.40;;;;;;;;;;4955864;28;20188;-76
2023/09/25 03:55:15;;;;;;;2.93;2.27;;;;;;;;;;4953580;28;20243;-75
2023/09/25 03:57:40;;;;;;;3.47;2.33;;;;;;;;;;4952934;28;20184;-76
2023/09/25 04:00:06;;;;;;;3.93;1.90;;;;;;;;;;4951652;28;20181;-76
2023/09/25 04:02:33;;;;;;;2.87;2.20;;;;;;;;;;4953530;28;20210;-75
2023/09/25 04:04:58;;;;;;;3.53;2.00;;;;;;;;;;4955118;28;20214;-75
2023/09/25 04:07:23;;;;;;;2.10;1.90;;;;;;;;;;4954628;28;20193;-76
2023/09/25 04:09:49;;;;;;;2.73;2.23;;;;;;;;;;4954350;28;20185;-76
2023/09/25 04:12:14;;;;;;;2.20;2.00;;;;;;;;;;4970614;28;20181;-75
2023/09/25 04:14:41;;;;;;;3.27;2.30;;;;;;;;;;4970596;28;20209;-75
2023/09/25 04:17:08;;;;;;;5.63;2.20;;;;;;;;;;4968841;28;20185;-75
2023/09/25 04:19:33;;;;;;;2.60;2.20;;;;;;;;;;4954761;28;20212;-75
2023/09/25 04:21:59;;;;;;;3.40;2.20;;;;;;;;;;4969768;28;20181;-75
2023/09/25 04:24:25;;;;;;;5.33;2.13;;;;;;;;;;4972541;28;20198;-76
2023/09/25 04:26:50;;;;;;;2.40;1.80;;;;;;;;;;4969325;28;20247;-75
2023/09/25 04:29:17;;;;;;;3.07;2.07;;;;;;;;;;4953886;28;20232;-76
2023/09/25 04:31:44;;;;;;;2.43;2.20;;;;;;;;;;4951279;28;20324;-75
2023/09/25 04:34:10;;;;;;;3.30;2.50;;;;;;;;;;4953827;28;20185;-75
2023/09/25 04:36:36;;;;;;;2.40;1.77;;;;;;;;;;4969774;28;20189;-75
2023/09/25 04:39:01;;;;;;;2.30;2.07;;;;;;;;;;4952926;28;20221;-76
2023/09/25 04:41:26;;;;;;;2.93;2.00;;;;;;;;;;4953056;28;20205;-75
2023/09/25 04:43:52;;;;;;;3.40;2.37;;;;;;;;;;4954458;28;20228;-75
2023/09/25 04:46:18;;;;;;;3.97;3.57;;;;;;;;;;4953838;28;20186;-75
2023/09/25 04:48:43;;;;;;;4.13;2.53;;;;;;;;;;4954701;28;20248;-75
2023/09/25 04:51:08;;;;;;;3.00;2.70;;;;;;;;;;4953379;28;20326;-75
2023/09/25 04:53:34;;;;;;;2.67;2.47;;;;;;;;;;4972007;28;20195;-75
2023/09/25 04:55:59;;;;;;;4.93;2.93;;;;;;;;;;4954247;28;20198;-75
2023/09/25 04:58:24;;;;;;;3.10;2.77;;;;;;;;;;4968434;28;20166;-76
2023/09/25 05:00:50;;;;;;;3.40;2.77;;;;;;;;;;4951838;28;20245;-75
2023/09/25 05:03:15;;;;;;;6.83;5.57;;;;;;;;;;4951979;28;20178;-75
2023/09/25 05:05:40;;;;;;;4.83;3.30;;;;;;;;;;4951763;28;20181;-76
2023/09/25 05:08:06;;;;;;;10.60;5.17;;;;;;;;;;4953975;28;20195;-75
2023/09/25 05:10:31;;;;;;;5.23;3.23;;;;;;;;;;4951741;28;20190;-75
2023/09/25 05:12:56;;;;;;;3.07;2.20;;;;;;;;;;4953040;28;20188;-76
2023/09/25 05:15:22;;;;;;;2.70;2.10;;;;;;;;;;4953128;28;20238;-75
2023/09/25 05:17:48;;;;;;;3.00;2.30;;;;;;;;;;4967968;28;20209;-75
2023/09/25 05:20:16;;;;;;;4.30;3.80;;;;;;;;;;4954468;28;20182;-75
2023/09/25 05:22:45;;;;;;;2.83;2.10;;;;;;;;;;4951216;28;20185;-75
2023/09/25 05:25:11;;;;;;;2.40;2.20;;;;;;;;;;4968179;28;20188;-75
2023/09/25 05:27:37;;;;;;;3.23;2.23;;;;;;;;;;4966712;28;20203;-75
2023/09/25 05:30:03;;;;;;;5.33;2.23;;;;;;;;;;4949126;28;20320;-76
2023/09/25 05:32:28;;;;;;;2.53;2.20;;;;;;;;;;4950125;28;20193;-75
2023/09/25 05:34:54;;;;;;;3.20;2.10;;;;;;;;;;4948211;29;20292;-75
2023/09/25 05:37:19;;;;;;;3.07;2.77;;;;;;;;;;4949395;29;20189;-75
2023/09/25 05:39:44;;;;;;;2.53;2.13;;;;;;;;;;4946204;29;21605;-76
2023/09/25 05:42:10;;;;;;;3.30;1.90;;;;;;;;;;4951483;28;20173;-75
2023/09/25 05:44:35;;;;;;;2.70;1.90;;;;;;;;;;4949670;28;20282;-75
2023/09/25 05:47:00;;;;;;;5.13;2.20;;;;;;;;;;4944867;29;20187;-75
2023/09/25 05:49:26;;;;;;;3.67;2.10;;;;;;;;;;4948870;28;20217;-75
2023/09/25 05:51:53;;;;;;;2.20;2.00;;;;;;;;;;4944615;29;20486;-75
2023/09/25 05:54:19;;;;;;;2.93;2.40;;;;;;;;;;4949541;29;20185;-75
2023/09/25 05:56:44;;;;;;;3.00;2.20;;;;;;;;;;4945407;28;20181;-76
2023/09/25 05:59:09;;;;;;;2.70;2.20;;;;;;;;;;4949982;29;20181;-75
2023/09/25 06:01:35;;;;;;;2.27;1.93;;;;;;;;;;4947674;28;20285;-75
2023/09/25 06:04:00;;;;;;;5.00;2.00;;;;;;;;;;4945476;29;20193;-76
2023/09/25 06:06:25;;;;;;;4.83;2.00;;;;;;;;;;4946398;28;20178;-75
2023/09/25 06:08:51;;;;;;;3.37;2.13;;;;;;;;;;4943744;28;20265;-76
2023/09/25 06:11:17;;;;;;;2.90;1.90;;;;;;;;;;4949173;28;20194;-75
2023/09/25 06:13:42;;;;;;;4.00;2.07;;;;;;;;;;4946091;29;20697;-75
2023/09/25 06:16:07;;;;;;;2.83;2.07;;;;;;;;;;4949167;28;20206;-75
2023/09/25 06:18:32;;;;;;;3.00;2.00;;;;;;;;;;4947428;29;20182;-76
2023/09/25 06:20:58;;;;;;;2.10;1.90;;;;;;;;;;4954460;28;20277;-76
2023/09/25 06:23:23;;;;;;;4.43;2.27;;;;;;;;;;4956511;28;20272;-75
2023/09/25 06:25:48;;;;;;;2.73;2.00;;;;;;;;;;4951168;28;20178;-75
2023/09/25 06:28:14;;;;;;;3.53;2.20;;;;;;;;;;4951473;28;20259;-76
2023/09/25 06:30:40;;;;;;;3.17;2.00;;;;;;;;;;4955234;28;20184;-76
2023/09/25 06:33:06;;;;;;;2.67;2.00;;;;;;;;;;4956750;28;20182;-75
2023/09/25 06:35:33;;;;;;;3.43;2.77;;;;;;;;;;4955835;28;20206;-75
2023/09/25 06:37:58;;;;;;;2.10;1.90;;;;;;;;;;4973969;28;20232;-76
2023/09/25 06:40:23;;;;;;;3.80;2.20;;;;;;;;;;4974201;28;20182;-75
2023/09/25 06:42:48;;;;;;;2.77;2.00;;;;;;;;;;4971574;28;20185;-76
2023/09/25 06:45:14;;;;;;;3.33;1.90;;;;;;;;;;4956885;28;20186;-76
2023/09/25 06:47:39;;;;;;;4.20;2.27;;;;;;;;;;4955093;28;20185;-76
2023/09/25 06:50:05;;;;;;;2.03;1.83;;;;;;;;;;4954759;28;20190;-75
2023/09/25 06:52:30;;;;;;;2.03;1.80;;;;;;;;;;4950568;28;21584;-75
2023/09/25 06:54:56;;;;;;;3.20;2.00;;;;;;;;;;4957079;28;20233;-76
2023/09/25 06:57:21;;;;;;;2.60;1.93;;;;;;;;;;4970531;28;20199;-76
2023/09/25 06:59:46;;;;;;;2.27;2.03;;;;;;;;;;4953198;28;20250;-76
2023/09/25 07:02:12;;;;;;;5.40;2.00;;;;;;;;;;4953984;28;20175;-76
2023/09/25 07:04:37;;;;;;;1.70;1.50;;;;;;;;;;4955928;28;20190;-76
2023/09/25 07:07:02;;;;;;;1.90;1.60;;;;;;;;;;4955156;28;20227;-76
2023/09/25 07:09:28;;;;;;;2.67;2.03;;;;;;;;;;4970634;28;20208;-76
2023/09/25 07:11:53;;;;;;;2.63;2.17;;;;;;;;;;4950472;28;20187;-76
2023/09/25 07:14:18;;;;;;;3.23;2.20;;;;;;;;;;4954111;28;20260;-76
2023/09/25 07:16:44;;;;;;;3.70;1.70;;;;;;;;;;4950728;28;20195;-76
2023/09/25 07:19:10;;;;;;;2.30;2.10;;;;;;;;;;4955789;28;20181;-76
2023/09/25 07:21:36;;;;;;;2.57;1.90;;;;;;;;;;4951939;28;20326;-76
2023/09/25 07:24:01;;;;;;;2.13;1.90;;;;;;;;;;4954350;28;20269;-76
2023/09/25 07:26:26;;;;;;;3.50;2.33;;;;;;;;;;4969018;28;20208;-75
2023/09/25 07:28:52;;;;;;;1.97;1.70;;;;;;;;;;4950121;28;20348;-75
2023/09/25 07:31:22;;;;;;;3.23;2.23;;;;;;;;;;4954894;28;20223;-76
2023/09/25 07:33:48;;;;;;;2.20;1.80;;;;;;;;;;4952370;29;20180;-76
2023/09/25 07:36:18;;;;;;;8.17;2.33;;;;;;;;;;4953172;29;20205;-76
2023/09/25 07:38:43;;;;;;;3.20;2.23;;;;;;;;;;4952019;29;20180;-76
2023/09/25 07:41:12;;;;;;;2.47;2.07;;;;;;;;;;4952566;29;20187;-76
2023/09/25 07:43:37;;;;;;;1.80;1.70;;;;;;;;;;4947882;29;20428;-76
2023/09/25 07:46:02;;;;;;;3.30;1.90;;;;;;;;;;4952246;28;20197;-76
2023/09/25 07:48:30;;;;;;;2.50;1.90;;;;;;;;;;4952115;28;20181;-75
2023/09/25 07:50:58;;;;;;;4.17;2.10;;;;;;;;;;4952288;29;20189;-76
2023/09/25 07:53:23;;;;;;;3.13;1.80;;;;;;;;;;4953221;29;20235;-75
2023/09/25 07:55:49;;;;;;;2.30;1.80;;;;;;;;;;4950020;29;20216;-76
2023/09/25 07:58:14;;;;;;;2.93;2.00;;;;;;;;;;4951044;28;20261;-75
2023/09/25 08:00:44;;;;;;;4.03;1.97;;;;;;;;;;4951875;29;20196;-76
2023/09/25 08:03:09;;;;;;;2.17;1.90;;;;;;;;;;4952593;28;20327;-75
2023/09/25 08:05:35;;;;;;;5.03;1.80;;;;;;;;;;4951496;29;20274;-75
2023/09/25 08:08:01;;;;;;;2.17;1.70;;;;;;;;;;4948243;29;20189;-75
2023/09/25 08:10:26;;;;;;;2.50;1.90;;;;;;;;;;4950640;29;20558;-76
2023/09/25 08:12:51;;;;;;;2.27;1.90;;;;;;;;;;4950921;29;20188;-76
2023/09/25 08:15:17;;;;;;;2.53;2.00;;;;;;;;;;4952731;28;20191;-76
2023/09/25 08:17:43;;;;;;;2.00;1.70;;;;;;;;;;4951630;29;20451;-75
2023/09/25 08:20:20;;;;;;;1.87;1.70;;;;;;;;;;4954381;28;20195;-76
2023/09/25 08:22:45;;;;;;;12.97;2.60;;;;;;;;;;4951067;29;20177;-75
2023/09/25 08:25:10;;;;;;;3.40;1.87;;;;;;;;;;4948264;29;20189;-75
2023/09/25 08:27:36;;;;;;;2.43;1.67;;;;;;;;;;4949924;29;20204;-75
2023/09/25 08:30:03;;;;;;;2.37;2.17;;;;;;;;;;4968892;28;20230;-76
2023/09/25 08:32:28;;;;;;;2.20;1.80;;;;;;;;;;4955174;28;20242;-75
2023/09/25 08:34:53;;;;;;;2.00;1.73;;;;;;;;;;4954920;28;20209;-76
2023/09/25 08:37:18;;;;;;;1.63;1.43;;;;;;;;;;4955052;28;20189;-76
2023/09/25 08:39:43;;;;;;;5.33;1.80;;;;;;;;;;4969740;28;20185;-76
2023/09/25 08:42:09;;;;;;;2.70;1.93;;;;;;;;;;4953936;28;20190;-74
2023/09/25 08:44:36;;;;;;;2.13;1.87;;;;;;;;;;4951344;28;20191;-73
2023/09/25 08:47:01;;;;;;;2.67;1.67;;;;;;;;;;4967550;28;20232;-74
2023/09/25 08:49:27;;;;;;;3.90;1.80;;;;;;;;;;4950931;28;20191;-73
2023/09/25 08:51:53;;;;;;;3.33;1.70;;;;;;;;;;4943297;28;20223;-73
2023/09/25 08:54:18;;;;;;;2.17;1.97;;;;;;;;;;4950127;28;20219;-73
2023/09/25 08:56:45;;;;;;;1.70;1.60;;;;;;;;;;4971858;28;20170;-73
2023/09/25 08:59:11;;;;;;;25.23;3.97;;;;;;;;;;4971865;28;20466;-73
2023/09/25 09:01:37;;;;;;;2.03;1.60;;;;;;;;;;4953931;28;20173;-73
2023/09/25 09:04:03;;;;;;;3.80;2.43;;;;;;;;;;4972510;28;20233;-73
2023/09/25 09:06:29;;;;;;;2.20;1.80;;;;;;;;;;4971394;28;20179;-74
2023/09/25 09:08:56;;;;;;;2.43;1.80;;;;;;;;;;4971022;28;20257;-73
2023/09/25 09:11:21;;;;;;;1.90;1.63;;;;;;;;;;4959525;28;20191;-73
2023/09/25 09:13:47;;;;;;;3.73;1.63;;;;;;;;;;4954472;28;20189;-73
2023/09/25 09:16:17;;;;;;;2.00;1.80;;;;;;;;;;4954558;28;20243;-73
2023/09/25 09:18:43;;;;;;;3.80;1.87;;;;;;;;;;4953851;28;20184;-73
2023/09/25 09:21:27;;;;;;;1.90;1.80;;;;;;;;;;4954580;28;20190;-72
2023/09/25 09:23:57;;;;;;;2.43;1.83;;;;;;;;;;4969955;28;20184;-73
2023/09/25 09:26:23;;;;;;;2.57;1.83;;;;;;;;;;4949855;28;20212;-72
2023/09/25 09:28:49;;;;;;;2.30;2.10;;;;;;;;;;4948501;28;20239;-73
2023/09/25 09:31:16;;;;;;;2.40;2.20;;;;;;;;;;4971189;28;20185;-73
2023/09/25 09:33:41;;;;;;;2.20;1.80;;;;;;;;;;4952929;28;20275;-73
2023/09/25 09:36:07;;;;;;;4.63;2.07;;;;;;;;;;4971544;28;20293;-73
2023/09/25 09:38:33;;;;;;;3.20;1.70;;;;;;;;;;4953689;28;20169;-73
2023/09/25 09:41:00;;;;;;;2.93;1.60;;;;;;;;;;4952855;28;20242;-73
2023/09/25 09:43:25;;;;;;;2.10;1.80;;;;;;;;;;4952350;28;20191;-73
2023/09/25 09:45:51;;;;;;;2.50;1.90;;;;;;;;;;4955299;28;20176;-72
2023/09/25 09:48:19;;;;;;;2.00;1.80;;;;;;;;;;4952552;28;20192;-73
2023/09/25 09:50:48;;;;;;;2.13;1.80;;;;;;;;;;4952219;28;20190;-73
2023/09/25 09:53:13;;;;;;;2.20;2.00;;;;;;;;;;4953251;28;20186;-74
2023/09/25 09:55:39;;;;;;;2.07;1.80;;;;;;;;;;4950583;28;20196;-73
2023/09/25 09:58:05;;;;;;;2.03;1.83;;;;;;;;;;4953051;28;20186;-72
2023/09/25 10:00:30;;;;;;;2.93;2.00;;;;;;;;;;4969794;28;20261;-73
2023/09/25 10:02:56;;;;;;;3.37;2.00;;;;;;;;;;4953160;28;20270;-72
2023/09/25 10:05:21;;;;;;;1.83;1.73;;;;;;;;;;4970707;28;20192;-72
2023/09/25 10:08:04;;;;;;;2.20;2.00;;;;;;;;;;4954016;28;20182;-73
2023/09/25 10:10:29;;;;;;;2.03;1.60;;;;;;;;;;4948551;28;20293;-73
2023/09/25 10:12:56;;;;;;;2.40;1.60;;;;;;;;;;4968560;28;20238;-72
2023/09/25 10:15:22;;;;;;;3.00;1.80;;;;;;;;;;4951704;28;20207;-72
2023/09/25 10:17:48;;;;;;;2.73;2.20;;;;;;;;;;4951889;28;20267;-72
2023/09/25 10:20:32;;;;;;;1.90;1.70;;;;;;;;;;4970987;28;20218;-72
2023/09/25 10:23:08;;;;;;;5.43;2.30;;;;;;;;;;4969337;28;20176;-73
2023/09/25 10:25:46;;;;;;;2.03;1.67;;;;;;;;;;4963314;28;20197;-72
2023/09/25 10:28:15;;;;;;;1.83;1.67;;;;;;;;;;4968336;28;20210;-72
2023/09/25 10:30:40;;;;;;;2.10;1.50;;;;;;;;;;4951024;28;20210;-73
2023/09/25 10:33:05;;;;;;;1.63;1.50;;;;;;;;;;4969981;28;20188;-73
2023/09/25 10:35:40;;;;;;;3.03;1.80;;;;;;;;;;4952832;28;20207;-72
2023/09/25 10:38:09;;;;;;;4.10;2.00;;;;;;;;;;4968497;28;20168;-72
2023/09/25 10:40:36;;;;;;;2.10;1.90;;;;;;;;;;4969090;28;20183;-72
2023/09/25 10:43:01;;;;;;;2.40;1.87;;;;;;;;;;4952534;28;20248;-72
2023/09/25 10:45:26;;;;;;;3.27;2.10;;;;;;;;;;4968077;28;20197;-73
2023/09/25 10:47:52;;;;;;;2.50;1.83;;;;;;;;;;4948111;28;20184;-73
2023/09/25 10:50:17;;;;;;;4.20;1.90;;;;;;;;;;4969825;28;20256;-73
2023/09/25 10:52:42;;;;;;;2.10;1.90;;;;;;;;;;4969116;28;20208;-72
2023/09/25 10:55:08;;;;;;;2.20;1.70;;;;;;;;;;4952880;28;20207;-72
2023/09/25 10:57:33;;;;;;;2.20;1.93;;;;;;;;;;4968910;28;20277;-72
2023/09/25 11:00:08;;;;;;;3.27;1.93;;;;;;;;;;4966251;28;20209;-73
2023/09/25 11:02:33;;;;;;;1.80;1.70;;;;;;;;;;4947661;28;20281;-72
2023/09/25 11:04:59;;;;;;;2.37;2.00;;;;;;;;;;4969339;28;20271;-72
2023/09/25 11:07:26;;;;;;;2.40;1.93;;;;;;;;;;4952721;28;20272;-73
2023/09/25 11:09:52;;;;;;;2.93;2.10;;;;;;;;;;4967046;28;20209;-72
2023/09/25 11:12:17;;;;;;;3.30;2.07;;;;;;;;;;4959365;28;20268;-72
2023/09/25 11:14:43;;;;;;;3.03;1.73;;;;;;;;;;4972475;28;20555;-72
2023/09/25 11:17:08;;;;;;;3.90;2.07;;;;;;;;;;4969259;28;20238;-72
2023/09/25 11:19:34;;;;;;;2.00;1.80;;;;;;;;;;4953445;28;20184;-72
2023/09/25 11:22:01;;;;;;;2.50;2.03;;;;;;;;;;4968307;28;20190;-72
2023/09/25 11:24:27;;;;;;;8.07;2.23;;;;;;;;;;4953168;28;20180;-72
2023/09/25 11:26:53;;;;;;;3.27;2.17;;;;;;;;;;4955054;28;20286;-72
2023/09/25 11:29:18;;;;;;;2.67;2.00;;;;;;;;;;4971979;28;20263;-72
2023/09/25 11:31:43;;;;;;;3.83;2.10;;;;;;;;;;4954536;28;20262;-73
2023/09/25 11:34:09;;;;;;;2.57;1.90;;;;;;;;;;4952842;28;20197;-72
2023/09/25 11:36:34;;;;;;;2.07;1.87;;;;;;;;;;4954765;28;20215;-72
2023/09/25 11:39:00;;;;;;;1.93;1.80;;;;;;;;;;4971670;28;20217;-72
2023/09/25 11:41:25;;;;;;;2.10;1.90;;;;;;;;;;4972806;28;20178;-72
2023/09/25 11:43:51;;;;;;;2.73;2.23;;;;;;;;;;4971125;28;20180;-72
2023/09/25 11:46:16;;;;;;;2.47;1.70;;;;;;;;;;4970552;28;20182;-74
2023/09/25 11:48:41;;;;;;;2.00;1.83;;;;;;;;;;4971213;28;20228;-72
2023/09/25 11:51:07;;;;;;;3.07;1.80;;;;;;;;;;4968987;28;20187;-73
2023/09/25 11:53:32;;;;;;;4.10;1.90;;;;;;;;;;4972114;28;20209;-73
2023/09/25 11:55:57;;;;;;;1.90;1.60;;;;;;;;;;4949937;28;20209;-73
2023/09/25 11:58:23;;;;;;;5.03;2.00;;;;;;;;;;4954531;28;20255;-72
2023/09/25 12:00:48;;;;;;;2.07;1.80;;;;;;;;;;4969234;28;20177;-72
2023/09/25 12:03:13;;;;;;;3.73;1.83;;;;;;;;;;4973816;28;20192;-72
2023/09/25 12:05:39;;;;;;;2.37;2.17;;;;;;;;;;4951092;28;20188;-73
2023/09/25 12:08:05;;;;;;;3.10;1.90;;;;;;;;;;4972250;28;20181;-72
2023/09/25 12:10:37;;;;;;;1.73;1.63;;;;;;;;;;4949123;28;20202;-72
2023/09/25 12:13:03;;;;;;;3.80;2.03;;;;;;;;;;4954503;28;20181;-72
2023/09/25 12:15:28;;;;;;;1.90;1.80;;;;;;;;;;4952843;28;20210;-72
2023/09/25 12:17:53;;;;;;;2.57;1.83;;;;;;;;;;4968848;28;20236;-71
2023/09/25 12:20:19;;;;;;;2.97;1.67;;;;;;;;;;4953606;28;20186;-72
2023/09/25 12:22:45;;;;;;;3.07;2.30;;;;;;;;;;4954159;28;20193;-71
2023/09/25 12:25:16;;;;;;;2.37;1.53;;;;;;;;;;4971740;28;20207;-72
2023/09/25 12:27:41;;;;;;;4.27;1.87;;;;;;;;;;4968042;28;20275;-72
2023/09/25 12:30:09;;;;;;;3.90;1.77;;;;;;;;;;4952267;28;20318;-71
2023/09/25 12:32:35;;;;;;;1.97;1.77;;;;;;;;;;4954842;28;20188;-72
2023/09/25 12:35:01;;;;;;;1.60;1.50;;;;;;;;;;4954353;28;20471;-72
2023/09/25 12:37:26;;;;;;;2.17;1.97;;;;;;;;;;4949696;28;20180;-72
2023/09/25 12:39:51;;;;;;;2.53;1.90;;;;;;;;;;4953302;28;20180;-72
2023/09/25 12:42:17;;;;;;;3.00;1.80;;;;;;;;;;4953539;28;20240;-72
2023/09/25 12:44:42;;;;;;;2.33;2.00;;;;;;;;;;4953625;28;20240;-73
2023/09/25 12:47:07;;;;;;;1.97;1.83;;;;;;;;;;4969856;28;20175;-72
2023/09/25 12:49:32;;;;;;;2.07;1.83;;;;;;;;;;4953574;28;20207;-72
2023/09/25 12:51:58;;;;;;;1.83;1.67;;;;;;;;;;4953934;28;20178;-72
2023/09/25 12:54:23;;;;;;;3.30;1.83;;;;;;;;;;4957457;28;20194;-72
2023/09/25 12:56:48;;;;;;;1.73;1.63;;;;;;;;;;4970324;28;20177;-72
2023/09/25 12:59:13;;;;;;;2.20;1.87;;;;;;;;;;4968927;28;20235;-72
2023/09/25 13:01:39;;;;;;;2.05;1.85;;;;;;;;;;4953716;28;20228;-71
2023/09/25 13:04:04;;;;;;;2.10;1.77;;;;;;;;;;4951285;28;20204;-72
2023/09/25 13:06:31;;;;;;;2.27;1.93;;;;;;;;;;4953473;28;20180;-72
2023/09/25 13:08:57;;;;;;;2.58;1.75;;;;;;;;;;4953317;28;20188;-71
2023/09/25 13:11:22;;;;;;;2.05;1.85;;;;;;;;;;4970254;28;20223;-72
2023/09/25 13:13:47;;;;;;;2.30;1.67;;;;;;;;;;4970745;28;20176;-72
2023/09/25 13:16:13;;;;;;;2.17;1.98;;;;;;;;;;4953212;28;20239;-72
2023/09/25 13:18:38;;;;;;;3.28;2.13;;;;;;;;;;4968718;28;20247;-72
2023/09/25 13:21:03;;;;;;;2.53;1.80;;;;;;;;;;4970114;28;20191;-71
2023/09/25 13:23:30;;;;;;;3.40;2.30;;;;;;;;;;4949775;28;20176;-72
2023/09/25 13:25:56;;;;;;;4.05;2.10;;;;;;;;;;4961535;28;20181;-72
2023/09/25 13:28:21;;;;;;;4.18;1.77;;;;;;;;;;4949451;28;20229;-72
2023/09/25 13:30:46;;;;;;;3.13;1.95;;;;;;;;;;4952972;28;20169;-72
2023/09/25 13:33:12;;;;;;;2.30;2.10;;;;;;;;;;4967747;28;20263;-72
2023/09/25 13:35:37;;;;;;;3.15;2.28;;;;;;;;;;4953443;28;20212;-72
2023/09/25 13:38:02;;;;;;;4.05;2.40;;;;;;;;;;4948962;28;20187;-71
2023/09/25 13:40:28;;;;;;;6.85;2.75;;;;;;;;;;4970733;28;20169;-71
2023/09/25 13:42:54;;;;;;;2.35;2.10;;;;;;;;;;4954762;28;20228;-71
2023/09/25 13:45:19;;;;;;;3.05;2.35;;;;;;;;;;4967133;28;20176;-72
2023/09/25 13:47:44;;;;;;;2.90;2.30;;;;;;;;;;4969585;28;20268;-72
2023/09/25 13:50:14;;;;;;;2.80;2.38;;;;;;;;;;4953526;28;20187;-72
2023/09/25 13:52:39;;;;;;;2.20;2.00;;;;;;;;;;4951320;28;20200;-72
2023/09/25 13:55:05;;;;;;;3.05;2.65;;;;;;;;;;4948474;28;20487;-71
2023/09/25 13:57:32;;;;;;;4.90;2.20;;;;;;;;;;4968790;28;20189;-72
2023/09/25 13:59:57;;;;;;;7.55;2.50;;;;;;;;;;4966665;28;20180;-72
2023/09/25 14:02:22;;;;;;;3.33;2.28;;;;;;;;;;4969807;28;20184;-71
2023/09/25 14:04:48;;;;;;;4.18;2.35;;;;;;;;;;4953651;28;20267;-72
2023/09/25 14:07:13;;;;;;;2.58;2.38;;;;;;;;;;4952896;28;20271;-72
2023/09/25 14:09:38;;;;;;;2.28;2.08;;;;;;;;;;4952613;28;20177;-72
2023/09/25 14:12:04;;;;;;;3.10;2.22;;;;;;;;;;4963422;28;20193;-72
2023/09/25 14:14:39;;;;;;;4.47;2.75;;;;;;;;;;4953618;28;20271;-71
2023/09/25 14:17:05;;;;;;;2.75;2.17;;;;;;;;;;4967413;28;20215;-72
2023/09/25 14:19:30;;;;;;;3.33;2.40;;;;;;;;;;4974566;28;20177;-72
2023/09/25 14:21:55;;;;;;;5.20;2.72;;;;;;;;;;4965774;28;20312;-71
2023/09/25 14:24:20;;;;;;;2.90;1.90;;;;;;;;;;4948988;28;20223;-72
2023/09/25 14:26:46;;;;;;;2.65;2.10;;;;;;;;;;4968875;28;20193;-72
2023/09/25 14:29:12;;;;;;;3.28;2.25;;;;;;;;;;4945779;28;20575;-71
2023/09/25 14:31:37;;;;;;;2.30;2.10;;;;;;;;;;4966476;28;20432;-72
2023/09/25 14:34:02;;;;;;;3.17;2.28;;;;;;;;;;4966904;28;20185;-72
2023/09/25 14:36:29;;;;;;;5.15;2.35;;;;;;;;;;4948729;28;20244;-71
2023/09/25 14:38:54;;;;;;;5.13;2.38;;;;;;;;;;4947572;28;20192;-72